createdAt,value
2022-12-11T00:02:04.772Z,16.20
2022-12-11T00:04:32.277Z,18.38
2022-12-11T00:06:59.026Z,19.50
2022-12-11T00:09:25.855Z,20.98
2022-12-11T00:11:52.653Z,16.23
2022-12-11T00:14:19.364Z,17.48
2022-12-11T00:16:47.982Z,18.33
2022-12-11T00:19:15.566Z,17.02
2022-12-11T00:21:42.506Z,21.70
2022-12-11T00:24:09.306Z,20.70
2022-12-11T00:26:36.046Z,18.40
2022-12-11T00:29:02.877Z,24.65
2022-12-11T00:31:29.672Z,18.65
2022-12-11T00:33:56.457Z,16.20
2022-12-11T00:36:26.902Z,18.30
2022-12-11T00:38:55.346Z,20.95
2022-12-11T00:41:22.353Z,18.88
2022-12-11T00:43:49.298Z,20.33
2022-12-11T00:46:16.481Z,25.27
2022-12-11T00:48:43.306Z,20.45
2022-12-11T00:51:10.841Z,19.38
2022-12-11T00:53:38.755Z,20.13
2022-12-11T00:56:17.220Z,20.23
2022-12-11T00:58:44.620Z,17.73
2022-12-11T01:01:15.624Z,22.63
2022-12-11T01:03:42.634Z,20.13
2022-12-11T01:06:14.237Z,25.75
2022-12-11T01:08:44.205Z,19.17
2022-12-11T01:11:20.380Z,21.67
2022-12-11T01:13:47.181Z,24.63
2022-12-11T01:16:15.950Z,20.90
2022-12-11T01:18:43.994Z,21.70
2022-12-11T01:21:13.380Z,21.02
2022-12-11T01:23:40.814Z,21.10
2022-12-11T01:26:15.476Z,22.77
2022-12-11T01:28:42.783Z,23.58
2022-12-11T01:31:11.030Z,22.75
2022-12-11T01:33:38.972Z,21.60
2022-12-11T01:36:14.420Z,27.23
2022-12-11T01:38:41.642Z,19.88
2022-12-11T01:41:09.220Z,18.77
2022-12-11T01:43:55.826Z,23.27
2022-12-11T01:46:22.624Z,20.27
2022-12-11T01:48:49.390Z,25.40
2022-12-11T01:51:16.680Z,23.67
2022-12-11T01:53:46.470Z,23.25
2022-12-11T01:56:13.326Z,24.15
2022-12-11T01:58:48.090Z,25.42
2022-12-11T02:01:19.153Z,24.08
2022-12-11T02:03:45.899Z,26.38
2022-12-11T02:06:48.859Z,24.23
2022-12-11T02:09:21.048Z,26.00
2022-12-11T02:12:00.088Z,26.30
2022-12-11T02:14:41.573Z,24.42
2022-12-11T02:17:20.248Z,25.55
2022-12-11T02:19:55.810Z,22.90
2022-12-11T02:22:41.641Z,25.73
2022-12-11T02:25:15.108Z,25.30
2022-12-11T02:27:46.316Z,21.55
2022-12-11T02:30:15.997Z,33.35
2022-12-11T02:32:58.372Z,28.00
2022-12-11T02:35:35.062Z,21.98
2022-12-11T02:38:09.544Z,24.25
2022-12-11T02:40:39.528Z,24.23
2022-12-11T02:43:10.552Z,27.27
2022-12-11T02:45:39.375Z,25.15
2022-12-11T02:48:08.586Z,23.77
2022-12-11T02:50:38.123Z,24.63
2022-12-11T02:53:06.573Z,25.38
2022-12-11T02:55:34.047Z,25.40
2022-12-11T02:58:16.020Z,22.58
2022-12-11T03:00:44.867Z,30.02
2022-12-11T03:03:12.432Z,22.42
2022-12-11T03:05:39.897Z,19.48
2022-12-11T03:08:06.743Z,27.15
2022-12-11T03:10:33.662Z,23.08
2022-12-11T03:13:00.842Z,23.92
2022-12-11T03:15:36.664Z,28.20
2022-12-11T03:18:15.242Z,24.98
2022-12-11T03:20:48.028Z,26.83
2022-12-11T03:23:21.672Z,24.17
2022-12-11T03:25:57.981Z,24.52
2022-12-11T03:28:29.942Z,24.88
2022-12-11T03:30:57.227Z,28.52
2022-12-11T03:33:28.173Z,24.88
2022-12-11T03:35:57.726Z,24.92
2022-12-11T03:38:28.766Z,23.58
2022-12-11T03:40:58.859Z,23.75
2022-12-11T03:43:26.921Z,27.42
2022-12-11T03:45:54.482Z,26.83
2022-12-11T03:48:21.601Z,24.52
2022-12-11T03:50:49.089Z,21.60
2022-12-11T03:53:17.015Z,22.10
2022-12-11T03:55:43.871Z,23.73
2022-12-11T03:58:11.082Z,22.88
2022-12-11T04:00:38.134Z,23.92
2022-12-11T04:03:14.453Z,23.90
2022-12-11T04:05:49.354Z,23.10
2022-12-11T04:08:17.589Z,22.50
2022-12-11T04:10:44.645Z,19.30
2022-12-11T04:13:11.637Z,24.83
2022-12-11T04:15:40.364Z,20.52
2022-12-11T04:18:29.166Z,29.20
2022-12-11T04:21:14.954Z,24.08
2022-12-11T04:24:00.399Z,24.83
2022-12-11T04:26:27.520Z,23.90
2022-12-11T04:28:54.373Z,23.27
2022-12-11T04:31:22.557Z,20.55
2022-12-11T04:33:49.890Z,22.65
2022-12-11T04:36:17.105Z,25.33
2022-12-11T04:38:43.760Z,23.13
2022-12-11T04:41:14.601Z,21.30
2022-12-11T04:43:41.974Z,24.85
2022-12-11T04:46:11.234Z,22.90
2022-12-11T04:48:38.749Z,23.83
2022-12-11T04:51:06.114Z,25.85
2022-12-11T04:53:33.316Z,21.10
2022-12-11T04:56:00.040Z,25.88
2022-12-11T04:58:27.855Z,27.40
2022-12-11T05:00:54.684Z,24.40
2022-12-11T05:03:21.624Z,24.65
2022-12-11T05:05:53.153Z,22.63
2022-12-11T05:08:20.866Z,23.38
2022-12-11T05:10:58.509Z,24.48
2022-12-11T05:13:25.606Z,25.60
2022-12-11T05:15:52.353Z,25.10
2022-12-11T05:18:19.283Z,28.67
2022-12-11T05:20:45.947Z,25.65
2022-12-11T05:23:13.104Z,24.08
2022-12-11T05:25:39.891Z,28.17
2022-12-11T05:28:06.808Z,29.80
2022-12-11T05:30:33.584Z,30.00
2022-12-11T05:33:00.504Z,29.08
2022-12-11T05:35:27.376Z,27.95
2022-12-11T05:37:54.159Z,30.33
2022-12-11T05:40:21.657Z,35.75
2022-12-11T05:42:48.558Z,28.52
2022-12-11T05:45:15.525Z,30.95
2022-12-11T05:47:42.492Z,30.52
2022-12-11T05:50:10.999Z,27.92
2022-12-11T05:52:37.844Z,27.98
2022-12-11T05:55:04.796Z,27.08
2022-12-11T05:57:31.635Z,32.92
2022-12-11T05:59:58.324Z,28.58
2022-12-11T06:02:25.298Z,28.38
2022-12-11T06:04:52.185Z,29.42
2022-12-11T06:07:18.938Z,27.48
2022-12-11T06:09:45.656Z,29.17
2022-12-11T06:12:12.438Z,26.23
2022-12-11T06:14:39.425Z,31.35
2022-12-11T06:17:06.205Z,26.80
2022-12-11T06:19:36.756Z,28.73
2022-12-11T06:22:04.318Z,31.90
2022-12-11T06:24:31.183Z,29.70
2022-12-11T06:26:58.346Z,30.95
2022-12-11T06:29:25.110Z,27.77
2022-12-11T06:31:51.900Z,30.85
2022-12-11T06:34:18.799Z,28.40
2022-12-11T06:36:45.488Z,31.05
2022-12-11T06:39:12.333Z,28.85
2022-12-11T06:41:39.161Z,31.65
2022-12-11T06:44:05.899Z,30.50
2022-12-11T06:46:32.590Z,32.35
2022-12-11T06:48:59.462Z,29.52
2022-12-11T06:51:26.482Z,30.67
2022-12-11T06:53:55.616Z,32.17
2022-12-11T06:56:24.055Z,31.58
2022-12-11T06:58:51.998Z,34.20
2022-12-11T07:01:22.967Z,34.47
2022-12-11T07:03:50.082Z,32.08
2022-12-11T07:06:16.836Z,35.30
2022-12-11T07:08:43.845Z,36.38
2022-12-11T07:11:12.842Z,32.65
2022-12-11T07:13:40.514Z,36.97
2022-12-11T07:16:11.085Z,31.85
2022-12-11T07:18:43.867Z,34.05
2022-12-11T07:21:13.076Z,31.55
2022-12-11T07:23:40.290Z,33.50
2022-12-11T07:26:09.708Z,30.45
2022-12-11T07:28:36.673Z,30.35
2022-12-11T07:31:11.157Z,34.33
2022-12-11T07:33:37.964Z,28.58
2022-12-11T07:36:06.665Z,38.72
2022-12-11T07:38:33.824Z,30.38
2022-12-11T07:41:08.311Z,28.23
2022-12-11T07:43:35.758Z,33.67
2022-12-11T07:46:03.990Z,25.92
2022-12-11T07:48:31.441Z,31.27
2022-12-11T07:51:26.505Z,28.90
2022-12-11T07:53:55.323Z,29.30
2022-12-11T07:56:22.454Z,27.95
2022-12-11T07:58:50.192Z,24.77
2022-12-11T08:01:29.226Z,33.25
2022-12-11T08:03:57.012Z,31.83
2022-12-11T08:06:29.689Z,28.00
2022-12-11T08:08:57.778Z,31.55
2022-12-11T08:11:25.403Z,32.08
2022-12-11T08:13:52.599Z,28.98
2022-12-11T08:16:20.090Z,24.60
2022-12-11T08:18:47.770Z,29.70
2022-12-11T08:21:20.662Z,27.23
2022-12-11T08:23:48.211Z,29.17
2022-12-11T08:26:19.108Z,26.63
2022-12-11T08:28:45.936Z,28.80
2022-12-11T08:31:14.592Z,28.50
2022-12-11T08:33:42.104Z,29.75
2022-12-11T08:36:11.419Z,28.77
2022-12-11T08:38:38.326Z,26.83
2022-12-11T08:41:19.389Z,28.45
2022-12-11T08:43:46.914Z,27.75
2022-12-11T08:46:14.164Z,28.23
2022-12-11T08:48:42.245Z,25.77
2022-12-11T08:51:12.913Z,24.75
2022-12-11T08:53:40.346Z,25.90
2022-12-11T08:56:14.816Z,27.63
2022-12-11T08:58:42.451Z,30.90
2022-12-11T09:01:18.189Z,25.00
2022-12-11T09:03:45.154Z,22.23
2022-12-11T09:06:14.025Z,24.70
2022-12-11T09:08:42.554Z,25.30
2022-12-11T09:11:14.569Z,28.27
2022-12-11T09:13:42.074Z,28.42
2022-12-11T09:16:11.565Z,24.83
2022-12-11T09:18:39.307Z,26.55
2022-12-11T09:21:08.916Z,24.85
2022-12-11T09:23:38.861Z,28.48
2022-12-11T09:26:07.025Z,26.95
2022-12-11T09:28:34.656Z,30.67
2022-12-11T09:31:01.893Z,27.15
2022-12-11T09:33:28.775Z,22.38
2022-12-11T09:36:02.861Z,25.30
2022-12-11T09:38:33.125Z,27.42
2022-12-11T09:41:00.344Z,24.42
2022-12-11T09:43:50.442Z,23.77
2022-12-11T09:46:24.709Z,24.55
2022-12-11T09:48:53.737Z,21.55
2022-12-11T09:51:28.345Z,23.95
2022-12-11T09:53:56.772Z,28.17
2022-12-11T09:56:50.862Z,22.05
2022-12-11T09:59:33.175Z,22.67
2022-12-11T10:02:26.557Z,18.80
2022-12-11T10:05:17.853Z,23.40
2022-12-11T10:07:52.341Z,21.95
2022-12-11T10:10:31.563Z,20.95
2022-12-11T10:13:04.444Z,22.02
2022-12-11T10:16:02.189Z,22.92
2022-12-11T10:18:29.997Z,23.40
2022-12-11T10:20:57.236Z,20.77
2022-12-11T10:23:57.321Z,25.73
2022-12-11T10:26:25.354Z,22.05
2022-12-11T10:28:52.134Z,20.20
2022-12-11T10:31:56.122Z,23.25
2022-12-11T10:34:26.100Z,25.60
2022-12-11T10:37:00.181Z,18.77
2022-12-11T10:39:27.769Z,22.42
2022-12-11T10:41:55.735Z,24.83
2022-12-11T10:44:28.114Z,21.45
2022-12-11T10:47:09.732Z,24.40
2022-12-11T10:49:38.244Z,18.73
2022-12-11T10:52:36.006Z,21.80
2022-12-11T10:55:06.417Z,23.48
2022-12-11T10:57:35.587Z,22.23
2022-12-11T11:00:05.091Z,24.48
2022-12-11T11:02:34.448Z,19.35
2022-12-11T11:05:12.762Z,21.50
2022-12-11T11:07:40.018Z,19.20
2022-12-11T11:10:06.917Z,21.45
2022-12-11T11:12:50.309Z,20.88
2022-12-11T11:15:25.248Z,21.42
2022-12-11T11:17:56.317Z,22.73
2022-12-11T11:20:28.549Z,22.80
2022-12-11T11:23:12.244Z,19.75
2022-12-11T11:25:39.164Z,25.60
2022-12-11T11:28:11.390Z,25.88
2022-12-11T11:30:42.429Z,27.83
2022-12-11T11:33:20.485Z,24.58
2022-12-11T11:36:04.743Z,20.30
2022-12-11T11:38:39.815Z,23.10
2022-12-11T11:41:15.767Z,28.30
2022-12-11T11:43:51.670Z,24.10
2022-12-11T11:46:29.895Z,28.58
2022-12-11T11:49:25.152Z,28.08
2022-12-11T11:52:00.064Z,21.58
2022-12-11T11:54:54.799Z,21.38
2022-12-11T11:57:27.811Z,21.60
2022-12-11T11:59:57.546Z,22.13
2022-12-11T12:02:24.294Z,21.45
2022-12-11T12:04:52.150Z,21.23
2022-12-11T12:07:47.821Z,23.45
2022-12-11T12:10:27.001Z,18.07
2022-12-11T12:13:44.716Z,23.35
2022-12-11T12:16:43.773Z,17.33
2022-12-11T12:19:07.965Z,21.25
2022-12-11T12:21:36.966Z,20.40
2022-12-11T12:24:31.376Z,21.02
2022-12-11T12:27:50.878Z,23.58
2022-12-11T12:30:16.115Z,21.55
2022-12-11T12:33:09.764Z,23.23
2022-12-11T12:35:38.977Z,19.30
2022-12-11T12:38:06.991Z,19.27
2022-12-11T12:40:41.358Z,22.98
2022-12-11T12:43:29.537Z,22.55
2022-12-11T12:46:04.508Z,23.13
2022-12-11T12:48:31.581Z,18.17
2022-12-11T12:50:58.900Z,20.52
2022-12-11T12:53:29.529Z,20.15
2022-12-11T12:55:56.847Z,21.42
2022-12-11T12:58:35.957Z,22.90
2022-12-11T13:01:14.265Z,19.98
2022-12-11T13:04:04.171Z,19.63
2022-12-11T13:06:47.875Z,21.47
2022-12-11T13:09:24.448Z,19.83
2022-12-11T13:11:57.880Z,30.95
2022-12-11T13:14:30.347Z,29.80
2022-12-11T13:17:28.853Z,26.33
2022-12-11T13:20:18.044Z,24.30
2022-12-11T13:23:19.139Z,29.60
2022-12-11T13:25:52.501Z,20.07
2022-12-11T13:28:39.846Z,22.00
2022-12-11T13:31:19.114Z,20.42
2022-12-11T13:33:51.574Z,40.83
2022-12-11T13:36:24.118Z,26.38
2022-12-11T13:39:05.796Z,28.85
2022-12-11T13:41:35.665Z,23.05
2022-12-11T13:44:07.129Z,19.90
2022-12-11T13:46:36.064Z,20.70
2022-12-11T13:49:06.957Z,22.45
2022-12-11T13:51:38.072Z,21.10
2022-12-11T13:54:16.995Z,20.90
2022-12-11T13:57:35.355Z,22.15
2022-12-11T14:00:19.906Z,23.85
2022-12-11T14:02:46.855Z,23.57
2022-12-11T14:05:15.697Z,24.80
2022-12-11T14:07:50.548Z,26.67
2022-12-11T14:10:27.454Z,25.73
2022-12-11T14:12:59.286Z,23.20
2022-12-11T14:15:27.982Z,26.83
2022-12-11T14:17:56.465Z,21.70
2022-12-11T14:20:26.352Z,24.73
2022-12-11T14:22:53.390Z,28.08
2022-12-11T14:25:27.066Z,28.30
2022-12-11T14:27:57.349Z,23.77
2022-12-11T14:30:43.411Z,25.63
2022-12-11T14:33:16.357Z,25.33
2022-12-11T14:35:44.743Z,27.13
2022-12-11T14:38:18.355Z,25.30
2022-12-11T14:40:49.848Z,29.95
2022-12-11T14:43:31.004Z,23.92
2022-12-11T14:46:06.717Z,28.65
2022-12-11T14:48:38.515Z,24.33
2022-12-11T14:51:09.137Z,28.23
2022-12-11T14:53:42.809Z,27.15
2022-12-11T14:56:18.042Z,27.25
2022-12-11T14:58:59.305Z,23.27
2022-12-11T15:01:29.530Z,24.30
2022-12-11T15:04:15.114Z,24.73
2022-12-11T15:06:56.660Z,27.38
2022-12-11T15:09:26.906Z,26.67
2022-12-11T15:11:56.446Z,30.67
2022-12-11T15:14:24.316Z,28.50
2022-12-11T15:16:54.972Z,26.40
2022-12-11T15:19:25.028Z,28.85
2022-12-11T15:22:09.554Z,22.93
2022-12-11T15:24:40.858Z,27.17
2022-12-11T15:27:33.993Z,26.33
2022-12-11T15:30:00.806Z,27.10
2022-12-11T15:32:27.632Z,24.48
2022-12-11T15:34:56.930Z,25.38
2022-12-11T15:37:36.661Z,25.08
2022-12-11T15:40:05.913Z,27.70
2022-12-11T15:42:36.431Z,29.60
2022-12-11T15:45:06.610Z,25.83
2022-12-11T15:47:34.153Z,26.45
2022-12-11T15:50:17.557Z,25.60
2022-12-11T15:52:45.060Z,26.65
2022-12-11T15:55:12.569Z,26.20
2022-12-11T15:57:45.304Z,26.08
2022-12-11T16:00:18.857Z,24.38
2022-12-11T16:02:46.820Z,26.92
2022-12-11T16:05:14.829Z,22.87
2022-12-11T16:07:42.072Z,20.23
2022-12-11T16:10:19.150Z,25.83
2022-12-11T16:13:00.326Z,24.30
2022-12-11T16:15:27.633Z,24.47
2022-12-11T16:18:14.396Z,26.83
2022-12-11T16:20:42.743Z,26.45
2022-12-11T16:23:10.300Z,35.47
2022-12-11T16:25:39.109Z,31.23
2022-12-11T16:28:07.112Z,25.43
2022-12-11T16:30:38.999Z,27.50
2022-12-11T16:33:12.748Z,27.27
2022-12-11T16:35:43.585Z,33.37
2022-12-11T16:38:10.981Z,27.10
2022-12-11T16:40:41.821Z,32.20
2022-12-11T16:46:12.472Z,26.63
2022-12-11T16:48:39.454Z,30.13
2022-12-11T16:54:10.707Z,29.15
2022-12-11T16:56:38.675Z,30.60
2022-12-11T16:59:05.894Z,32.63
2022-12-11T17:01:33.588Z,28.60
2022-12-11T17:04:00.861Z,24.75
2022-12-11T17:06:28.554Z,27.58
2022-12-11T17:08:58.663Z,25.60
2022-12-11T17:11:26.623Z,26.10
2022-12-11T17:14:04.088Z,22.23
2022-12-11T17:16:34.773Z,25.52
2022-12-11T17:19:07.449Z,23.63
2022-12-11T17:21:34.508Z,20.75
2022-12-11T17:24:01.535Z,23.48
2022-12-11T17:26:50.974Z,21.88
2022-12-11T17:29:18.190Z,26.80
2022-12-11T17:31:45.468Z,25.85
2022-12-11T17:34:12.755Z,25.45
2022-12-11T17:36:39.666Z,26.55
2022-12-11T17:39:06.480Z,26.13
2022-12-11T17:41:33.525Z,29.00
2022-12-11T17:44:00.613Z,25.42
2022-12-11T17:46:37.144Z,25.80
2022-12-11T17:49:10.947Z,29.67
2022-12-11T17:51:38.018Z,28.38
2022-12-11T17:54:04.882Z,27.35
2022-12-11T17:56:35.027Z,27.63
2022-12-11T17:59:16.894Z,27.83
2022-12-11T18:01:46.841Z,27.35
2022-12-11T18:04:17.855Z,31.55
2022-12-11T18:06:54.017Z,29.35
2022-12-11T18:09:25.725Z,28.17
2022-12-11T18:11:57.427Z,30.38
2022-12-11T18:14:26.308Z,25.55
2022-12-11T18:19:46.186Z,25.98
2022-12-11T18:22:13.243Z,26.10
2022-12-11T18:24:40.939Z,29.75
2022-12-11T18:27:11.197Z,25.63
2022-12-11T18:29:38.410Z,27.15
2022-12-11T18:32:05.307Z,32.00
2022-12-11T18:34:32.277Z,27.05
2022-12-11T18:36:59.486Z,26.75
2022-12-11T18:39:26.503Z,29.30
2022-12-11T18:42:16.565Z,26.75
2022-12-11T18:44:40.408Z,25.60
2022-12-11T18:47:07.295Z,28.08
2022-12-11T18:49:34.209Z,26.60
2022-12-11T18:52:01.117Z,23.52
2022-12-11T18:54:29.528Z,23.90
2022-12-11T18:56:57.232Z,28.40
2022-12-11T18:59:24.307Z,30.50
2022-12-11T19:01:51.238Z,30.67
2022-12-11T19:04:18.876Z,28.10
2022-12-11T19:06:47.846Z,30.50
2022-12-11T19:09:15.239Z,30.67
2022-12-11T19:11:42.278Z,30.17
2022-12-11T19:14:09.732Z,26.27
2022-12-11T19:16:43.816Z,26.08
2022-12-11T19:19:19.834Z,25.58
2022-12-11T19:21:47.282Z,24.40
2022-12-11T19:24:20.430Z,25.85
2022-12-11T19:26:47.927Z,25.08
2022-12-11T19:29:27.641Z,25.98
2022-12-11T19:31:55.813Z,24.80
2022-12-11T19:34:23.596Z,23.65
2022-12-11T19:36:50.769Z,23.00
2022-12-11T19:39:19.900Z,21.45
2022-12-11T19:42:01.744Z,26.75
2022-12-11T19:47:46.505Z,26.27
2022-12-11T19:50:13.447Z,22.77
2022-12-11T19:52:45.805Z,23.25
2022-12-11T19:55:15.224Z,22.83
2022-12-11T19:57:42.326Z,24.02
2022-12-11T20:00:09.720Z,23.88
2022-12-11T20:02:39.165Z,23.75
2022-12-11T20:05:06.885Z,25.10
2022-12-11T20:07:33.907Z,26.25
2022-12-11T20:10:06.494Z,35.30
2022-12-11T20:12:34.609Z,26.50
2022-12-11T20:15:06.320Z,24.83
2022-12-11T20:18:03.532Z,22.38
2022-12-11T20:20:33.709Z,22.30
2022-12-11T20:23:01.112Z,24.58
2022-12-11T20:25:28.384Z,21.25
2022-12-11T20:28:00.662Z,25.95
2022-12-11T20:30:27.560Z,28.13
2022-12-11T20:32:54.421Z,26.98
2022-12-11T20:35:21.548Z,26.75
2022-12-11T20:37:48.408Z,27.38
2022-12-11T20:40:15.419Z,26.70
2022-12-11T20:42:42.802Z,25.60
2022-12-11T20:45:10.893Z,29.50
2022-12-11T20:47:38.496Z,29.95
2022-12-11T20:50:07.176Z,28.77
2022-12-11T20:52:36.651Z,25.13
2022-12-11T20:55:04.988Z,27.67
2022-12-11T20:57:32.649Z,28.58
2022-12-11T20:59:59.514Z,25.75
2022-12-11T21:02:26.503Z,23.08
2022-12-11T21:04:53.548Z,26.23
2022-12-11T21:07:22.484Z,29.42
2022-12-11T21:09:49.589Z,25.50
2022-12-11T21:12:17.547Z,24.95
2022-12-11T21:14:45.666Z,26.15
2022-12-11T21:17:14.021Z,21.88
2022-12-11T21:19:43.121Z,29.05
2022-12-11T21:22:10.390Z,26.02
2022-12-11T21:24:37.448Z,24.55
2022-12-11T21:27:04.635Z,25.80
2022-12-11T21:29:31.668Z,28.70
2022-12-11T21:31:58.760Z,25.75
2022-12-11T21:34:26.505Z,25.50
2022-12-11T21:36:56.926Z,27.25
2022-12-11T21:39:25.421Z,24.25
2022-12-11T21:41:53.055Z,27.90
2022-12-11T21:47:09.942Z,25.73
2022-12-11T21:49:37.545Z,26.95
2022-12-11T21:52:15.622Z,23.83
2022-12-11T21:54:45.977Z,24.27
2022-12-11T21:57:12.893Z,27.23
2022-12-11T21:59:39.661Z,28.60
2022-12-11T22:02:06.671Z,29.50
2022-12-11T22:04:33.840Z,31.10
2022-12-11T22:07:00.958Z,25.23
2022-12-11T22:09:27.830Z,25.42
2022-12-11T22:11:58.316Z,22.48
2022-12-11T22:14:25.736Z,25.38
2022-12-11T22:16:52.542Z,21.17
2022-12-11T22:19:19.381Z,25.30
2022-12-11T22:21:46.569Z,26.00
2022-12-11T22:24:14.216Z,20.80
2022-12-11T22:26:41.005Z,24.92
2022-12-11T22:29:08.025Z,25.20
2022-12-11T22:31:34.881Z,23.33
2022-12-11T22:34:01.748Z,22.60
2022-12-11T22:36:28.595Z,22.02
2022-12-11T22:38:55.606Z,23.58
2022-12-11T22:41:28.423Z,23.05
2022-12-11T22:43:55.825Z,23.50
2022-12-11T22:46:25.062Z,22.40
2022-12-11T22:48:52.170Z,23.67
2022-12-11T22:51:19.410Z,21.80
2022-12-11T22:53:46.321Z,21.70
2022-12-11T22:56:13.899Z,25.45
2022-12-11T22:58:41.051Z,20.85
2022-12-11T23:01:12.965Z,20.00
2022-12-11T23:03:39.794Z,22.70
2022-12-11T23:06:12.237Z,23.73
2022-12-11T23:08:39.782Z,20.13
2022-12-11T23:11:12.040Z,22.58
2022-12-11T23:13:40.048Z,27.48
2022-12-11T23:16:08.454Z,21.75
2022-12-11T23:18:35.394Z,24.02
2022-12-11T23:21:02.495Z,22.02
2022-12-11T23:23:29.240Z,20.95
2022-12-11T23:25:56.780Z,22.55
2022-12-11T23:28:23.764Z,25.23
2022-12-11T23:30:50.811Z,21.92
2022-12-11T23:33:17.719Z,23.67
2022-12-11T23:35:45.450Z,21.75
2022-12-11T23:38:12.281Z,24.38
2022-12-11T23:40:39.537Z,20.58
2022-12-11T23:43:10.282Z,22.92
2022-12-11T23:45:37.079Z,22.02
2022-12-11T23:48:03.951Z,21.00
2022-12-11T23:50:32.935Z,22.20
2022-12-11T23:52:59.835Z,18.00
2022-12-11T23:55:29.390Z,20.63
2022-12-11T23:57:58.123Z,22.13
